Time;durP1;ratioP1;P1;durP2;ratioP2;P2;SDS_P1;SDS_P2;PMS_P1;PMS_P2;Temp;Humidity;BMP_temperature;BMP_pressure;BME280_temperature;BME280_humidity;BME280_pressure;Samples;Min_cycle;Max_cycle;Signal;HPM_P1;HPM_P2
2022/12/19 00:01:33;;;;;;;6.33;5.73;;;;;;;;;;5059412;28;20226;-75
2022/12/19 00:04:01;;;;;;;8.67;6.50;;;;;;;;;;5051132;28;20218;-75
2022/12/19 00:06:29;;;;;;;6.83;6.17;;;;;;;;;;5035243;28;20708;-75
2022/12/19 00:08:59;;;;;;;6.47;5.87;;;;;;;;;;5018145;28;20215;-74
2022/12/19 00:11:27;;;;;;;7.47;6.37;;;;;;;;;;5041460;28;20223;-75
2022/12/19 00:13:53;;;;;;;7.60;6.70;;;;;;;;;;5029662;28;20227;-75
2022/12/19 00:16:24;;;;;;;8.07;6.57;;;;;;;;;;5015948;28;20272;-75
2022/12/19 00:18:52;;;;;;;8.67;6.30;;;;;;;;;;5029810;28;20227;-74
2022/12/19 00:21:19;;;;;;;8.50;6.87;;;;;;;;;;5042268;28;20235;-75
2022/12/19 00:23:50;;;;;;;8.47;6.93;;;;;;;;;;5056168;28;20219;-74
2022/12/19 00:26:17;;;;;;;6.67;5.97;;;;;;;;;;5019221;28;20225;-74
2022/12/19 00:28:49;;;;;;;7.40;6.57;;;;;;;;;;5053780;28;20223;-74
2022/12/19 00:31:19;;;;;;;7.53;6.63;;;;;;;;;;5045137;28;20230;-74
2022/12/19 00:33:49;;;;;;;7.40;6.03;;;;;;;;;;5035870;28;20218;-75
2022/12/19 00:36:17;;;;;;;7.10;6.37;;;;;;;;;;5039736;28;20222;-74
2022/12/19 00:38:45;;;;;;;8.33;6.87;;;;;;;;;;5049254;28;20237;-77
2022/12/19 00:41:17;;;;;;;7.60;6.73;;;;;;;;;;5028450;28;20227;-73
2022/12/19 00:43:45;;;;;;;7.30;6.50;;;;;;;;;;5033969;28;20219;-75
2022/12/19 00:46:16;;;;;;;7.33;6.40;;;;;;;;;;5025386;28;20219;-74
2022/12/19 00:48:42;;;;;;;8.13;6.67;;;;;;;;;;5032282;28;20223;-75
2022/12/19 00:51:14;;;;;;;6.97;6.27;;;;;;;;;;5048498;28;20411;-74
2022/12/19 00:53:41;;;;;;;8.33;6.90;;;;;;;;;;5043232;28;20278;-74
2022/12/19 00:56:11;;;;;;;9.07;6.40;;;;;;;;;;5031563;28;20242;-73
2022/12/19 00:58:37;;;;;;;7.20;6.50;;;;;;;;;;5046662;28;20269;-75
2022/12/19 01:01:07;;;;;;;9.03;7.10;;;;;;;;;;5044480;28;20231;-74
2022/12/19 01:03:38;;;;;;;8.30;6.23;;;;;;;;;;5050733;28;20229;-74
2022/12/19 01:06:04;;;;;;;7.97;6.70;;;;;;;;;;5033870;28;20272;-74
2022/12/19 01:08:32;;;;;;;7.10;6.40;;;;;;;;;;5029773;28;20226;-75
2022/12/19 01:11:00;;;;;;;6.70;6.00;;;;;;;;;;5021646;28;20219;-74
2022/12/19 01:13:29;;;;;;;8.57;6.63;;;;;;;;;;5032830;28;20218;-74
2022/12/19 01:15:55;;;;;;;7.43;6.57;;;;;;;;;;5026561;28;20306;-74
2022/12/19 01:18:23;;;;;;;8.43;6.63;;;;;;;;;;5029719;28;20215;-74
2022/12/19 01:20:54;;;;;;;7.53;6.20;;;;;;;;;;5051043;28;20227;-75
2022/12/19 01:23:19;;;;;;;7.60;6.43;;;;;;;;;;5039465;28;20223;-75
2022/12/19 01:25:51;;;;;;;8.23;6.83;;;;;;;;;;5041925;28;20644;-74
2022/12/19 01:28:17;;;;;;;7.93;7.07;;;;;;;;;;5045730;28;20241;-74
2022/12/19 01:30:42;;;;;;;8.87;6.73;;;;;;;;;;5009578;28;20219;-74
2022/12/19 01:33:09;;;;;;;7.50;6.80;;;;;;;;;;5046843;28;20254;-74
2022/12/19 01:35:40;;;;;;;7.67;6.90;;;;;;;;;;5048039;28;20298;-74
2022/12/19 01:38:09;;;;;;;8.03;7.23;;;;;;;;;;5016191;28;20285;-74
2022/12/19 01:40:35;;;;;;;7.97;6.77;;;;;;;;;;5023009;28;20220;-75
2022/12/19 01:43:03;;;;;;;8.17;7.27;;;;;;;;;;5024107;28;20229;-74
2022/12/19 01:45:33;;;;;;;8.10;6.90;;;;;;;;;;5029621;28;20624;-74
2022/12/19 01:48:02;;;;;;;8.33;7.27;;;;;;;;;;5012476;28;20219;-74
2022/12/19 01:50:48;;;;;;;8.20;6.53;;;;;;;;;;5060151;28;20222;-75
2022/12/19 01:53:16;;;;;;;8.53;6.93;;;;;;;;;;5040352;28;20233;-74
2022/12/19 01:55:46;;;;;;;8.37;7.43;;;;;;;;;;5041724;28;20775;-74
2022/12/19 01:58:11;;;;;;;8.27;7.40;;;;;;;;;;5025419;28;20218;-74
2022/12/19 02:00:37;;;;;;;8.00;7.20;;;;;;;;;;5063002;28;20211;-76
2022/12/19 02:03:18;;;;;;;10.90;7.83;;;;;;;;;;5014612;28;20644;-74
2022/12/19 02:05:46;;;;;;;8.23;7.33;;;;;;;;;;5049030;28;20352;-75
2022/12/19 02:08:14;;;;;;;8.13;7.23;;;;;;;;;;5046544;28;20227;-74
2022/12/19 02:10:39;;;;;;;8.70;7.80;;;;;;;;;;5048609;28;20824;-73
2022/12/19 02:13:10;;;;;;;8.37;7.50;;;;;;;;;;5024705;28;20727;-74
2022/12/19 02:16:16;;;;;;;9.27;8.27;;;;;;;;;;5039941;28;20312;-74
2022/12/19 02:19:01;;;;;;;8.73;7.83;;;;;;;;;;4958477;28;20987;-74
2022/12/19 02:22:15;;;;;;;9.27;8.27;;;;;;;;;;5030841;28;20214;-74
2022/12/19 02:25:02;;;;;;;8.60;7.70;;;;;;;;;;5019314;28;20218;-73
2022/12/19 02:27:42;;;;;;;9.43;8.27;;;;;;;;;;5064551;28;20341;-74
2022/12/19 02:30:12;;;;;;;9.87;8.30;;;;;;;;;;5057621;28;20915;-73
2022/12/19 02:32:44;;;;;;;10.83;7.77;;;;;;;;;;5045941;28;20234;-75
2022/12/19 02:35:16;;;;;;;9.03;8.17;;;;;;;;;;5041876;28;20246;-74
2022/12/19 02:37:46;;;;;;;12.60;8.93;;;;;;;;;;5031441;28;20301;-74
2022/12/19 02:40:25;;;;;;;9.50;8.60;;;;;;;;;;5028055;28;20238;-74
2022/12/19 02:43:03;;;;;;;11.27;9.03;;;;;;;;;;5026632;28;20222;-74
2022/12/19 02:45:34;;;;;;;9.97;8.23;;;;;;;;;;5035576;28;20644;-74
2022/12/19 02:48:00;;;;;;;14.67;8.70;;;;;;;;;;5010845;28;20218;-75
2022/12/19 02:50:34;;;;;;;10.10;9.00;;;;;;;;;;5010043;28;20212;-74
2022/12/19 02:52:59;;;;;;;11.00;9.43;;;;;;;;;;5024417;28;20864;-74
2022/12/19 02:55:32;;;;;;;11.83;9.93;;;;;;;;;;5029384;28;20235;-75
2022/12/19 02:58:09;;;;;;;9.23;8.33;;;;;;;;;;5019421;28;20857;-74
2022/12/19 03:00:44;;;;;;;11.20;9.57;;;;;;;;;;5059496;28;20306;-74
2022/12/19 03:03:15;;;;;;;11.30;9.37;;;;;;;;;;5025920;28;20223;-75
2022/12/19 03:06:01;;;;;;;11.67;9.63;;;;;;;;;;5048408;28;20295;-75
2022/12/19 03:08:35;;;;;;;10.00;8.97;;;;;;;;;;5044450;28;20278;-74
2022/12/19 03:11:12;;;;;;;10.13;9.13;;;;;;;;;;5058768;28;20310;-74
2022/12/19 03:13:59;;;;;;;10.30;9.30;;;;;;;;;;5045915;28;20250;-75
2022/12/19 03:16:27;;;;;;;9.87;8.87;;;;;;;;;;5051561;28;20218;-75
2022/12/19 03:18:54;;;;;;;10.37;9.30;;;;;;;;;;5047952;28;20225;-74
2022/12/19 03:21:20;;;;;;;11.20;9.93;;;;;;;;;;5042019;28;20284;-75
2022/12/19 03:23:46;;;;;;;10.10;9.10;;;;;;;;;;5051371;28;20228;-75
2022/12/19 03:26:14;;;;;;;11.40;9.90;;;;;;;;;;5031801;28;20222;-74
2022/12/19 03:29:03;;;;;;;12.90;9.83;;;;;;;;;;5035150;28;20218;-74
2022/12/19 03:31:33;;;;;;;10.30;9.23;;;;;;;;;;5061270;28;20280;-74
2022/12/19 03:34:24;;;;;;;10.53;9.43;;;;;;;;;;5022243;28;20219;-75
2022/12/19 03:36:56;;;;;;;13.03;9.90;;;;;;;;;;5058903;28;20347;-74
2022/12/19 03:39:22;;;;;;;11.77;9.70;;;;;;;;;;5029851;28;20223;-76
2022/12/19 03:44:35;;;;;;;9.93;8.93;;;;;;;;;;5038247;28;20238;-74
2022/12/19 03:47:25;;;;;;;10.90;9.67;;;;;;;;;;5038857;28;20257;-73
2022/12/19 03:49:54;;;;;;;12.93;9.60;;;;;;;;;;5045137;28;20572;-74
2022/12/19 03:52:35;;;;;;;11.13;9.93;;;;;;;;;;5044788;28;20240;-73
2022/12/19 03:55:27;;;;;;;10.93;9.73;;;;;;;;;;5043107;28;20708;-73
2022/12/19 03:57:56;;;;;;;14.17;10.73;;;;;;;;;;5051484;28;20227;-73
2022/12/19 04:00:24;;;;;;;10.47;9.37;;;;;;;;;;5015592;28;20258;-74
2022/12/19 04:02:53;;;;;;;13.13;10.67;;;;;;;;;;5030348;28;20233;-75
2022/12/19 04:05:22;;;;;;;10.77;9.53;;;;;;;;;;5033691;28;20219;-75
2022/12/19 04:07:48;;;;;;;11.70;9.93;;;;;;;;;;5028553;28;20226;-74
2022/12/19 04:10:18;;;;;;;13.07;10.33;;;;;;;;;;5033797;28;20220;-75
2022/12/19 04:12:51;;;;;;;12.30;10.30;;;;;;;;;;5042874;28;20215;-75
2022/12/19 04:15:26;;;;;;;13.00;11.23;;;;;;;;;;5044052;28;20264;-75
2022/12/19 04:17:54;;;;;;;15.00;11.73;;;;;;;;;;5047308;28;20227;-75
2022/12/19 04:23:32;;;;;;;12.03;10.77;;;;;;;;;;5068914;28;20746;-84
2022/12/19 04:26:02;;;;;;;13.20;10.33;;;;;;;;;;5021925;28;20216;-85
2022/12/19 04:28:39;;;;;;;11.70;10.40;;;;;;;;;;5022563;28;20224;-84
2022/12/19 04:31:05;;;;;;;11.80;10.60;;;;;;;;;;5028243;28;20292;-82
2022/12/19 04:33:34;;;;;;;11.63;10.40;;;;;;;;;;5019200;28;20235;-83
2022/12/19 04:36:04;;;;;;;17.00;12.30;;;;;;;;;;5030591;28;20223;-84
2022/12/19 04:38:33;;;;;;;14.33;10.80;;;;;;;;;;5039662;28;20680;-82
2022/12/19 04:40:59;;;;;;;16.17;11.90;;;;;;;;;;5028445;28;20238;-83
2022/12/19 04:43:24;;;;;;;13.87;11.70;;;;;;;;;;4984111;28;20556;-84
2022/12/19 04:45:52;;;;;;;19.30;10.60;;;;;;;;;;5016874;28;20222;-84
2022/12/19 04:48:21;;;;;;;16.30;12.47;;;;;;;;;;5020145;28;20220;-84
2022/12/19 04:50:48;;;;;;;11.67;10.43;;;;;;;;;;5044492;28;20227;-82
2022/12/19 04:53:14;;;;;;;13.53;10.93;;;;;;;;;;5039526;28;20226;-83
2022/12/19 04:55:43;;;;;;;11.70;10.50;;;;;;;;;;5034543;28;20246;-84
2022/12/19 04:58:11;;;;;;;14.47;10.47;;;;;;;;;;5004362;28;20276;-85
2022/12/19 05:00:42;;;;;;;11.47;10.27;;;;;;;;;;5028795;28;20222;-84
2022/12/19 05:03:07;;;;;;;15.73;10.43;;;;;;;;;;5010093;28;20228;-85
2022/12/19 05:05:36;;;;;;;13.23;10.53;;;;;;;;;;5024137;28;20228;-84
2022/12/19 05:08:06;;;;;;;11.43;9.80;;;;;;;;;;5021569;28;20243;-85
2022/12/19 05:10:34;;;;;;;10.97;9.83;;;;;;;;;;5017164;28;20235;-85
2022/12/19 05:13:00;;;;;;;11.57;10.33;;;;;;;;;;4985186;28;20228;-85
2022/12/19 05:15:28;;;;;;;13.87;10.13;;;;;;;;;;5009202;28;20224;-83
2022/12/19 05:17:56;;;;;;;14.53;10.90;;;;;;;;;;4999825;28;20236;-85
2022/12/19 05:20:21;;;;;;;12.00;10.73;;;;;;;;;;5004527;28;20234;-85
2022/12/19 05:22:47;;;;;;;12.30;10.37;;;;;;;;;;5019292;28;20224;-85
2022/12/19 05:25:17;;;;;;;11.63;10.43;;;;;;;;;;5019476;28;20456;-84
2022/12/19 05:27:49;;;;;;;12.23;10.83;;;;;;;;;;5022054;28;20227;-82
2022/12/19 05:30:17;;;;;;;11.13;9.80;;;;;;;;;;5036682;28;20232;-84
2022/12/19 05:32:45;;;;;;;11.23;10.03;;;;;;;;;;4986982;28;20243;-86
2022/12/19 05:35:11;;;;;;;12.70;10.60;;;;;;;;;;5004828;28;20702;-85
2022/12/19 05:37:38;;;;;;;12.77;9.93;;;;;;;;;;4998483;28;20220;-84
2022/12/19 05:40:07;;;;;;;10.47;9.47;;;;;;;;;;5015706;28;20228;-85
2022/12/19 05:42:32;;;;;;;11.90;10.40;;;;;;;;;;5002573;28;20228;-86
2022/12/19 05:45:02;;;;;;;11.77;10.17;;;;;;;;;;5001351;28;20234;-84
2022/12/19 05:47:28;;;;;;;11.57;10.37;;;;;;;;;;5018127;28;20297;-84
2022/12/19 05:49:53;;;;;;;11.87;10.13;;;;;;;;;;5002109;28;20219;-84
2022/12/19 05:52:23;;;;;;;11.97;10.57;;;;;;;;;;5014436;28;20227;-86
2022/12/19 05:54:49;;;;;;;14.70;10.87;;;;;;;;;;5019422;28;20335;-85
2022/12/19 05:57:15;;;;;;;14.07;10.70;;;;;;;;;;4999858;28;20230;-85
2022/12/19 05:59:40;;;;;;;13.90;10.97;;;;;;;;;;5000429;28;20227;-85
2022/12/19 06:02:08;;;;;;;11.80;10.27;;;;;;;;;;4998092;28;20225;-84
2022/12/19 06:04:34;;;;;;;13.90;10.50;;;;;;;;;;4999601;28;20223;-84
2022/12/19 06:07:04;;;;;;;11.70;10.43;;;;;;;;;;5016316;28;20281;-85
2022/12/19 06:09:30;;;;;;;11.53;9.87;;;;;;;;;;4999010;28;20227;-85
2022/12/19 06:11:58;;;;;;;12.60;10.40;;;;;;;;;;5014840;28;20319;-83
2022/12/19 06:14:28;;;;;;;11.67;10.47;;;;;;;;;;5016841;28;20362;-85
2022/12/19 06:16:53;;;;;;;12.63;10.73;;;;;;;;;;4983623;28;20227;-84
2022/12/19 06:19:22;;;;;;;13.60;11.00;;;;;;;;;;5000369;28;20250;-84
2022/12/19 06:21:49;;;;;;;13.00;10.73;;;;;;;;;;4998307;28;20677;-84
2022/12/19 06:24:20;;;;;;;13.00;10.67;;;;;;;;;;5026412;28;20765;-84
2022/12/19 06:26:50;;;;;;;12.53;11.23;;;;;;;;;;5024686;28;20224;-86
2022/12/19 06:29:17;;;;;;;11.47;9.77;;;;;;;;;;4998651;28;20618;-82
2022/12/19 06:31:43;;;;;;;12.00;10.80;;;;;;;;;;4995719;28;20288;-85
2022/12/19 06:34:09;;;;;;;11.97;10.40;;;;;;;;;;5011778;28;20310;-81
2022/12/19 06:36:39;;;;;;;13.73;10.40;;;;;;;;;;5018270;28;20231;-83
2022/12/19 06:39:09;;;;;;;12.60;11.20;;;;;;;;;;5035746;28;20224;-83
2022/12/19 06:44:21;;;;;;;11.77;10.37;;;;;;;;;;5025819;28;20223;-84
2022/12/19 06:46:49;;;;;;;14.50;10.90;;;;;;;;;;5005115;28;20227;-83
2022/12/19 06:49:15;;;;;;;13.90;11.37;;;;;;;;;;4988776;28;20590;-82
2022/12/19 06:51:40;;;;;;;13.23;11.73;;;;;;;;;;5023731;28;20220;-84
2022/12/19 06:54:06;;;;;;;13.00;9.73;;;;;;;;;;5013901;28;20292;-83
2022/12/19 06:56:37;;;;;;;14.13;11.30;;;;;;;;;;4997264;28;20227;-84
2022/12/19 06:59:04;;;;;;;14.97;10.83;;;;;;;;;;5007795;28;20232;-84
2022/12/19 07:01:52;;;;;;;12.80;10.77;;;;;;;;;;5029228;28;20224;-84
2022/12/19 07:04:47;;;;;;;13.73;10.97;;;;;;;;;;5025372;28;20208;-82
2022/12/19 07:07:13;;;;;;;11.83;10.63;;;;;;;;;;5036710;28;20219;-83
2022/12/19 07:09:39;;;;;;;13.47;11.07;;;;;;;;;;5024516;28;20220;-84
2022/12/19 07:12:05;;;;;;;15.57;11.07;;;;;;;;;;5022871;28;20231;-82
2022/12/19 07:14:30;;;;;;;12.07;10.70;;;;;;;;;;5008285;28;20232;-82
2022/12/19 07:17:02;;;;;;;14.17;11.07;;;;;;;;;;5036509;28;20220;-82
2022/12/19 07:19:28;;;;;;;12.73;10.67;;;;;;;;;;5024572;28;20223;-81
2022/12/19 07:21:54;;;;;;;11.57;10.37;;;;;;;;;;5022862;28;20745;-85
2022/12/19 07:24:19;;;;;;;13.60;12.20;;;;;;;;;;5008106;28;20229;-83
2022/12/19 07:26:45;;;;;;;12.63;10.50;;;;;;;;;;5007601;28;20224;-83
2022/12/19 07:29:13;;;;;;;13.73;11.07;;;;;;;;;;5031063;28;20223;-83
2022/12/19 07:31:43;;;;;;;12.60;11.03;;;;;;;;;;5034566;28;20222;-82
2022/12/19 07:34:09;;;;;;;12.83;11.53;;;;;;;;;;5013631;28;20314;-83
2022/12/19 07:36:35;;;;;;;13.10;11.70;;;;;;;;;;5020875;28;20224;-82
2022/12/19 07:39:00;;;;;;;14.03;12.63;;;;;;;;;;5025760;28;20563;-82
2022/12/19 07:41:26;;;;;;;13.33;11.63;;;;;;;;;;5023826;28;20228;-84
2022/12/19 07:43:54;;;;;;;16.23;12.90;;;;;;;;;;5009616;28;20258;-83
2022/12/19 07:46:26;;;;;;;12.60;11.30;;;;;;;;;;4989767;28;20242;-84
2022/12/19 07:48:52;;;;;;;14.43;12.33;;;;;;;;;;5021420;28;20275;-83
2022/12/19 07:51:22;;;;;;;13.47;12.00;;;;;;;;;;5015571;28;20646;-82
2022/12/19 07:53:51;;;;;;;12.07;10.87;;;;;;;;;;5001913;28;20726;-83
2022/12/19 07:56:16;;;;;;;13.93;11.93;;;;;;;;;;5040309;28;20283;-84
2022/12/19 07:59:02;;;;;;;15.57;12.40;;;;;;;;;;5010249;28;20222;-83
2022/12/19 08:01:30;;;;;;;12.77;11.30;;;;;;;;;;5024312;28;20237;-81
2022/12/19 08:03:56;;;;;;;15.97;12.63;;;;;;;;;;5022379;28;20227;-81
2022/12/19 08:06:27;;;;;;;14.93;12.30;;;;;;;;;;5021278;28;20228;-79
2022/12/19 08:08:52;;;;;;;15.33;11.43;;;;;;;;;;5002961;28;20316;-82
2022/12/19 08:11:25;;;;;;;13.73;12.23;;;;;;;;;;5002765;28;20278;-84
2022/12/19 08:13:53;;;;;;;13.73;12.23;;;;;;;;;;5032888;23;20217;-74
2022/12/19 08:16:19;;;;;;;17.57;13.07;;;;;;;;;;4983261;28;20307;-74
2022/12/19 08:18:45;;;;;;;16.63;13.70;;;;;;;;;;4989828;28;20340;-73
2022/12/19 08:21:10;;;;;;;13.93;12.53;;;;;;;;;;4977775;28;20230;-74
2022/12/19 08:23:37;;;;;;;15.17;13.57;;;;;;;;;;4976202;28;20225;-73
2022/12/19 08:26:12;;;;;;;18.10;12.53;;;;;;;;;;4990735;28;20269;-74
2022/12/19 08:28:38;;;;;;;14.03;12.53;;;;;;;;;;4994908;28;20247;-74
2022/12/19 08:31:08;;;;;;;13.90;12.53;;;;;;;;;;4984613;28;20598;-74
2022/12/19 08:33:35;;;;;;;16.07;13.20;;;;;;;;;;4986908;28;20221;-73
2022/12/19 08:36:10;;;;;;;13.97;12.60;;;;;;;;;;4984523;28;20221;-74
2022/12/19 08:38:40;;;;;;;15.07;13.37;;;;;;;;;;4991559;28;20225;-74
2022/12/19 08:41:10;;;;;;;17.30;14.23;;;;;;;;;;4987907;28;20239;-75
2022/12/19 08:43:37;;;;;;;16.33;12.97;;;;;;;;;;5008118;28;20253;-74
2022/12/19 08:46:03;;;;;;;14.87;13.27;;;;;;;;;;4991171;28;20562;-74
2022/12/19 08:48:28;;;;;;;15.10;12.97;;;;;;;;;;4985562;28;20244;-74
2022/12/19 08:50:56;;;;;;;14.87;13.33;;;;;;;;;;4998943;28;20228;-74
2022/12/19 08:53:21;;;;;;;14.97;13.37;;;;;;;;;;4965791;28;20321;-74
2022/12/19 08:55:49;;;;;;;16.40;13.90;;;;;;;;;;4992505;28;20316;-73
2022/12/19 08:58:15;;;;;;;19.03;14.93;;;;;;;;;;4974105;28;20263;-74
2022/12/19 09:00:40;;;;;;;16.20;13.90;;;;;;;;;;5007740;23;20230;-79
2022/12/19 09:03:08;;;;;;;16.20;14.10;;;;;;;;;;4996048;28;20234;-80
2022/12/19 09:05:34;;;;;;;16.67;14.40;;;;;;;;;;4981068;28;20227;-82
2022/12/19 09:08:06;;;;;;;16.37;13.60;;;;;;;;;;5012438;28;20224;-81
2022/12/19 09:10:37;;;;;;;15.70;14.10;;;;;;;;;;5010410;23;20234;-77
2022/12/19 09:13:05;;;;;;;16.10;13.47;;;;;;;;;;4949138;28;20580;-74
2022/12/19 09:15:31;;;;;;;18.13;15.07;;;;;;;;;;4954358;28;20237;-74
2022/12/19 09:18:01;;;;;;;15.03;13.23;;;;;;;;;;4969975;28;20302;-75
2022/12/19 09:20:29;;;;;;;15.10;13.40;;;;;;;;;;4978560;28;20237;-74
2022/12/19 09:22:54;;;;;;;15.03;12.70;;;;;;;;;;4947927;28;20320;-73
2022/12/19 09:25:20;;;;;;;16.73;13.50;;;;;;;;;;4949132;28;20278;-74
2022/12/19 09:27:45;;;;;;;16.93;14.57;;;;;;;;;;4950668;28;20252;-74
2022/12/19 09:30:14;;;;;;;14.13;12.63;;;;;;;;;;4978877;28;20228;-73
2022/12/19 09:32:42;;;;;;;17.83;15.17;;;;;;;;;;4963131;28;20242;-74
2022/12/19 09:35:08;;;;;;;22.90;20.03;;;;;;;;;;4975110;28;21557;-74
2022/12/19 09:37:33;;;;;;;24.83;20.30;;;;;;;;;;4946155;28;20229;-74
2022/12/19 09:39:59;;;;;;;29.47;26.30;;;;;;;;;;4950081;28;20230;-77
2022/12/19 09:42:27;;;;;;;16.17;13.70;;;;;;;;;;4987673;28;20233;-79
2022/12/19 09:45:05;;;;;;;16.47;14.77;;;;;;;;;;4979927;28;20225;-73
2022/12/19 09:47:32;;;;;;;15.40;13.80;;;;;;;;;;4981639;28;20569;-75
2022/12/19 09:49:58;;;;;;;16.40;14.17;;;;;;;;;;4970836;28;20775;-74
2022/12/19 09:52:33;;;;;;;16.47;14.63;;;;;;;;;;4965418;28;20226;-73
2022/12/19 09:55:10;;;;;;;16.47;13.60;;;;;;;;;;4982024;28;20304;-73
2022/12/19 09:57:50;;;;;;;15.43;13.77;;;;;;;;;;5001972;28;20232;-74
2022/12/19 10:00:20;;;;;;;15.67;14.03;;;;;;;;;;4966425;28;20217;-72
2022/12/19 10:02:48;;;;;;;17.63;14.30;;;;;;;;;;5002093;28;20240;-73
2022/12/19 10:05:39;;;;;;;15.07;13.30;;;;;;;;;;4992019;28;20241;-73
2022/12/19 10:08:17;;;;;;;16.77;13.63;;;;;;;;;;4965645;28;20222;-73
2022/12/19 10:10:59;;;;;;;15.47;13.77;;;;;;;;;;4978765;28;20257;-76
2022/12/19 10:13:33;;;;;;;16.87;14.27;;;;;;;;;;4980967;28;20230;-73
2022/12/19 10:16:10;;;;;;;16.70;13.60;;;;;;;;;;4981168;28;20316;-73
2022/12/19 10:18:57;;;;;;;15.73;14.13;;;;;;;;;;4996569;28;20217;-74
2022/12/19 10:21:43;;;;;;;14.93;13.47;;;;;;;;;;4970748;28;20231;-73
2022/12/19 10:24:14;;;;;;;16.13;14.47;;;;;;;;;;5002393;28;20316;-73
2022/12/19 10:26:48;;;;;;;15.67;13.97;;;;;;;;;;4978589;28;20238;-73
2022/12/19 10:29:51;;;;;;;15.27;13.67;;;;;;;;;;4954320;28;20251;-73
2022/12/19 10:32:25;;;;;;;16.23;13.80;;;;;;;;;;4978635;28;20567;-74
2022/12/19 10:34:53;;;;;;;16.93;13.30;;;;;;;;;;4984447;28;20235;-72
2022/12/19 10:37:38;;;;;;;15.70;14.10;;;;;;;;;;4980077;28;20221;-73
2022/12/19 10:40:21;;;;;;;16.30;14.37;;;;;;;;;;4979353;28;20246;-73
2022/12/19 10:42:50;;;;;;;17.03;14.77;;;;;;;;;;4979964;28;20253;-73
2022/12/19 10:45:18;;;;;;;17.80;15.00;;;;;;;;;;4977023;28;20228;-74
2022/12/19 10:47:47;;;;;;;15.23;13.47;;;;;;;;;;4989081;28;20218;-74
2022/12/19 10:50:15;;;;;;;19.13;15.10;;;;;;;;;;4969642;28;20305;-75
2022/12/19 10:52:55;;;;;;;15.77;14.10;;;;;;;;;;4967561;28;20328;-74
2022/12/19 10:55:39;;;;;;;16.43;14.67;;;;;;;;;;4981903;28;20278;-75
2022/12/19 10:58:24;;;;;;;15.10;13.57;;;;;;;;;;4984701;28;20295;-79
2022/12/19 11:00:53;;;;;;;16.70;13.80;;;;;;;;;;4971483;28;20741;-75
2022/12/19 11:03:18;;;;;;;18.37;14.67;;;;;;;;;;4973058;28;20962;-76
2022/12/19 11:05:53;;;;;;;17.47;14.07;;;;;;;;;;4971278;28;20640;-75
2022/12/19 11:08:32;;;;;;;15.60;14.00;;;;;;;;;;4979195;28;20222;-77
2022/12/19 11:11:03;;;;;;;18.17;14.87;;;;;;;;;;5001024;28;20313;-76
2022/12/19 11:13:34;;;;;;;16.33;13.50;;;;;;;;;;4985083;28;20272;-75
2022/12/19 11:16:00;;;;;;;15.10;13.70;;;;;;;;;;4979559;28;20657;-75
2022/12/19 11:18:40;;;;;;;14.53;13.03;;;;;;;;;;4951284;28;20224;-75
2022/12/19 11:21:20;;;;;;;13.77;12.07;;;;;;;;;;4955748;28;20221;-74
2022/12/19 11:23:58;;;;;;;16.07;11.87;;;;;;;;;;5015915;28;20275;-76
2022/12/19 11:26:45;;;;;;;12.77;11.50;;;;;;;;;;4981797;28;20229;-74
2022/12/19 11:29:40;;;;;;;12.17;11.00;;;;;;;;;;4980969;28;20220;-74
2022/12/19 11:32:07;;;;;;;12.43;11.23;;;;;;;;;;4998856;28;20273;-74
2022/12/19 11:34:35;;;;;;;11.93;10.67;;;;;;;;;;4983585;28;20275;-76
2022/12/19 11:37:16;;;;;;;12.53;11.23;;;;;;;;;;4970326;28;20771;-74
2022/12/19 11:39:54;;;;;;;12.10;11.00;;;;;;;;;;5005186;28;20432;-76
2022/12/19 11:42:24;;;;;;;11.33;10.17;;;;;;;;;;4988851;28;20229;-76
2022/12/19 11:45:08;;;;;;;10.27;9.37;;;;;;;;;;5008404;28;20762;-76
2022/12/19 11:47:56;;;;;;;10.10;9.20;;;;;;;;;;4990087;28;20224;-76
2022/12/19 11:50:31;;;;;;;11.13;10.13;;;;;;;;;;4979012;28;20218;-76
2022/12/19 11:53:16;;;;;;;10.63;9.63;;;;;;;;;;4968697;28;20225;-76
2022/12/19 11:55:50;;;;;;;11.07;9.97;;;;;;;;;;4989801;28;20233;-75
2022/12/19 11:58:16;;;;;;;10.90;9.97;;;;;;;;;;4987584;28;20660;-75
2022/12/19 12:01:08;;;;;;;11.97;10.77;;;;;;;;;;4984206;28;20222;-76
2022/12/19 12:03:43;;;;;;;11.10;10.00;;;;;;;;;;4987365;28;20225;-75
2022/12/19 12:06:15;;;;;;;12.90;11.60;;;;;;;;;;4979845;28;20221;-75
2022/12/19 12:09:09;;;;;;;12.43;11.20;;;;;;;;;;4987856;28;20232;-75
2022/12/19 12:11:49;;;;;;;12.70;11.37;;;;;;;;;;4981221;28;20305;-75
2022/12/19 12:14:20;;;;;;;12.33;11.23;;;;;;;;;;4989668;28;20223;-75
2022/12/19 12:16:52;;;;;;;12.67;11.47;;;;;;;;;;4971403;28;20292;-75
2022/12/19 12:19:51;;;;;;;12.43;11.13;;;;;;;;;;4987648;28;20258;-77
2022/12/19 12:22:42;;;;;;;12.50;11.30;;;;;;;;;;4983798;28;20233;-73
2022/12/19 12:25:56;;;;;;;13.30;11.90;;;;;;;;;;4975727;28;20241;-76
2022/12/19 12:28:49;;;;;;;13.40;11.93;;;;;;;;;;4961353;28;20295;-77
2022/12/19 12:31:24;;;;;;;12.67;11.37;;;;;;;;;;4985988;28;20711;-77
2022/12/19 12:34:14;;;;;;;14.83;12.57;;;;;;;;;;4991117;28;20783;-76
2022/12/19 12:37:18;;;;;;;14.27;12.77;;;;;;;;;;5014985;28;20230;-77
2022/12/19 12:40:04;;;;;;;12.93;11.70;;;;;;;;;;5013541;28;20235;-74
2022/12/19 12:43:05;;;;;;;14.50;12.53;;;;;;;;;;4981555;28;20901;-74
2022/12/19 12:45:41;;;;;;;14.60;12.73;;;;;;;;;;4945150;28;20278;-72
2022/12/19 12:48:18;;;;;;;14.53;13.13;;;;;;;;;;4944144;28;20227;-75
2022/12/19 12:50:47;;;;;;;16.30;13.73;;;;;;;;;;4996442;28;20229;-73
2022/12/19 12:53:15;;;;;;;14.60;13.30;;;;;;;;;;4994269;28;20217;-74
2022/12/19 12:55:43;;;;;;;16.07;14.47;;;;;;;;;;4956890;28;20610;-74
2022/12/19 12:58:50;;;;;;;16.53;14.53;;;;;;;;;;4966571;28;20719;-73
2022/12/19 13:01:16;;;;;;;13.93;12.63;;;;;;;;;;5012496;28;20304;-72
2022/12/19 13:03:44;;;;;;;18.13;13.43;;;;;;;;;;4988588;28;20326;-72
2022/12/19 13:06:34;;;;;;;15.63;14.13;;;;;;;;;;4971594;28;20225;-74
2022/12/19 13:09:08;;;;;;;16.10;13.80;;;;;;;;;;4985925;28;20221;-75
2022/12/19 13:14:36;;;;;;;15.77;14.07;;;;;;;;;;4970952;28;20643;-73
2022/12/19 13:17:06;;;;;;;15.90;14.20;;;;;;;;;;4982685;28;20277;-74
2022/12/19 13:19:31;;;;;;;15.97;14.10;;;;;;;;;;4962675;28;20226;-74
2022/12/19 13:22:03;;;;;;;15.53;14.03;;;;;;;;;;4991379;28;20214;-74
2022/12/19 13:24:47;;;;;;;18.53;13.57;;;;;;;;;;4979836;28;20257;-75
2022/12/19 13:27:20;;;;;;;15.23;13.40;;;;;;;;;;4986674;28;20699;-74
2022/12/19 13:30:02;;;;;;;15.83;14.23;;;;;;;;;;4982014;28;20247;-75
2022/12/19 13:32:42;;;;;;;18.40;16.27;;;;;;;;;;4995633;28;20229;-74
2022/12/19 13:35:10;;;;;;;17.63;15.93;;;;;;;;;;4980649;28;20288;-74
2022/12/19 13:37:41;;;;;;;21.87;19.67;;;;;;;;;;4981133;28;20809;-75
2022/12/19 13:40:23;;;;;;;22.90;20.50;;;;;;;;;;5018305;28;20612;-75
2022/12/19 13:46:22;;;;;;;56.20;34.17;;;;;;;;;;4982928;28;20221;-74
2022/12/19 13:48:57;;;;;;;37.23;23.97;;;;;;;;;;4986452;28;20222;-74
2022/12/19 13:51:23;;;;;;;46.00;30.40;;;;;;;;;;4987671;28;20231;-73
2022/12/19 13:53:55;;;;;;;29.00;23.40;;;;;;;;;;4970413;28;20217;-74
2022/12/19 13:56:31;;;;;;;20.23;16.33;;;;;;;;;;4963590;28;20257;-74
2022/12/19 13:58:58;;;;;;;19.77;16.90;;;;;;;;;;4988810;28;20229;-73
2022/12/19 14:01:34;;;;;;;17.73;15.90;;;;;;;;;;4963852;28;20229;-74
2022/12/19 14:04:04;;;;;;;21.87;19.57;;;;;;;;;;4980905;28;20248;-75
2022/12/19 14:06:46;;;;;;;22.77;20.43;;;;;;;;;;4984557;28;20603;-75
2022/12/19 14:09:21;;;;;;;19.73;17.67;;;;;;;;;;5009792;28;20220;-75
2022/12/19 14:11:51;;;;;;;17.63;15.77;;;;;;;;;;4972570;28;21060;-73
2022/12/19 14:17:12;;;;;;;18.20;16.50;;;;;;;;;;4977809;28;20236;-75
2022/12/19 14:19:50;;;;;;;18.23;16.43;;;;;;;;;;4964376;28;20224;-74
2022/12/19 14:22:16;;;;;;;17.43;15.63;;;;;;;;;;4977554;28;20226;-73
2022/12/19 14:24:59;;;;;;;19.33;17.43;;;;;;;;;;4987789;28;20270;-74
2022/12/19 14:27:40;;;;;;;19.50;17.40;;;;;;;;;;4982156;28;20221;-75
2022/12/19 14:30:14;;;;;;;22.50;16.23;;;;;;;;;;5001497;28;20233;-73
2022/12/19 14:32:41;;;;;;;18.13;15.97;;;;;;;;;;4974009;28;20236;-74
2022/12/19 14:35:16;;;;;;;19.37;17.17;;;;;;;;;;4978552;28;20225;-74
2022/12/19 14:37:45;;;;;;;18.57;16.63;;;;;;;;;;4957474;28;20253;-73
2022/12/19 14:40:22;;;;;;;18.90;16.90;;;;;;;;;;4977693;28;20301;-73
2022/12/19 14:45:39;;;;;;;22.97;17.70;;;;;;;;;;4980543;28;20296;-74
2022/12/19 14:48:24;;;;;;;19.73;17.00;;;;;;;;;;4971952;28;20296;-74
2022/12/19 14:50:50;;;;;;;20.10;18.07;;;;;;;;;;5003675;28;20263;-74
2022/12/19 14:53:19;;;;;;;20.47;16.70;;;;;;;;;;4967355;28;20230;-75
2022/12/19 14:55:48;;;;;;;19.90;17.80;;;;;;;;;;4976611;28;20727;-75
2022/12/19 14:58:18;;;;;;;21.43;18.23;;;;;;;;;;4969982;28;20217;-77
2022/12/19 15:00:50;;;;;;;20.87;18.63;;;;;;;;;;4977216;28;20229;-74
2022/12/19 15:03:22;;;;;;;21.37;17.80;;;;;;;;;;4968185;28;20329;-73
2022/12/19 15:05:47;;;;;;;18.77;16.87;;;;;;;;;;4963913;28;20296;-73
2022/12/19 15:08:16;;;;;;;19.90;17.67;;;;;;;;;;4967078;28;20220;-74
2022/12/19 15:10:44;;;;;;;20.83;18.60;;;;;;;;;;4988908;28;20631;-75
2022/12/19 15:13:18;;;;;;;21.03;17.43;;;;;;;;;;4997629;28;20238;-76